Pagrindinis puslapis
METAR-TAF:

METAR-TAF

Oro uostai :

Enontekiö, Suomija

platuma: 68-21-52N, ilguma: 023-25-39E, Aukštis: 308 m

Dabartinis oras

Ataskaita buvo paskelbta 16 minutes, ne 02:50 UTC
Vėjas 5 kt iš Šiaurės
Temperatūra -18°C
Drėgmė 84%
Slėgis 991 hPa
Matomumas 10 km arba daugiau
Mažai debesys ne aukštis 4800 ft
sniegas

METAR: EFET 010250Z AUTO 36005KT 9999 -SN FEW048 M18/M20 Q0991

Laikas: 05:06 (03:06 UTC)


TAF: trūkstamas

Orai ataskaitas ir orų prognozės (METAR, TAF).

turimą stotys yra geltonos ir raudonos taškus žemėlapyje.

Perkelti pele per norėdami pamatyti stoties vardą.

Tada spustelėkite, norėdami matyti oro stebėjimo ir prognozės.

Norėdami pakeisti žemėlapį: spustelėkite ant žalios mygtukų su juodo kryžiaus žemyn,; žalią mygtuką su brūkšneliu, jei norite nutolinti; arba žalių rodyklių gretimoms žemėlapius.


METAR-TAF: